Terminal Aerodrome Forecast
Issued by NWS Shreveport, LA

Home | Current Version | Previous Version | Text Only | Print | Product List | Glossary On
Versions: 1 2 3 4 5 6 7 8 9 10 11 12 13 14 15 16 17 18 19
000
FTUS44 KSHV 212300 RRA
TAFTYR
TAF
KTYR 212344Z 2200/2224 17009KT P6SM OVC020
     FM220500 17008KT P6SM OVC015
     FM220800 18011KT P6SM OVC007
     FM221800 19010KT P6SM OVC013
     FM222100 19009KT P6SM OVC018=

USA.gov is the U.S. government's official web portal to all federal, state and local government web resources and services.